sensor_id;sensor_type;location;lat;lon;timestamp;pressure;altitude;pressure_sealevel;temperature;humidity
38716;BME280;24833;49.324;8.694;2023-03-13T00:01:33;99307.19;;;9.95;91.42
38716;BME280;24833;49.324;8.694;2023-03-13T00:04:00;99299.00;;;9.96;92.03
38716;BME280;24833;49.324;8.694;2023-03-13T00:06:36;99294.50;;;9.97;91.01
38716;BME280;24833;49.324;8.694;2023-03-13T00:09:06;99296.97;;;9.98;91.59
38716;BME280;24833;49.324;8.694;2023-03-13T00:11:34;99287.94;;;9.99;91.91
38716;BME280;24833;49.324;8.694;2023-03-13T00:14:05;99286.28;;;9.98;91.41
38716;BME280;24833;49.324;8.694;2023-03-13T00:16:33;99282.59;;;9.99;91.59
38716;BME280;24833;49.324;8.694;2023-03-13T00:19:01;99274.59;;;9.99;91.98
38716;BME280;24833;49.324;8.694;2023-03-13T00:21:29;99274.59;;;9.99;92.10
38716;BME280;24833;49.324;8.694;2023-03-13T00:23:58;99271.94;;;9.99;91.56
38716;BME280;24833;49.324;8.694;2023-03-13T00:26:29;99267.41;;;10.00;91.84
38716;BME280;24833;49.324;8.694;2023-03-13T00:28:56;99261.25;;;9.99;91.94
38716;BME280;24833;49.324;8.694;2023-03-13T00:31:29;99266.59;;;9.99;92.02
38716;BME280;24833;49.324;8.694;2023-03-13T00:34:00;99249.78;;;9.99;91.64
38716;BME280;24833;49.324;8.694;2023-03-13T00:36:31;99248.97;;;9.98;91.97
38716;BME280;24833;49.324;8.694;2023-03-13T00:39:00;99239.31;;;9.97;91.77
38716;BME280;24833;49.324;8.694;2023-03-13T00:41:30;99236.66;;;9.97;91.78
38716;BME280;24833;49.324;8.694;2023-03-13T00:43:58;99231.31;;;9.97;91.69
38716;BME280;24833;49.324;8.694;2023-03-13T00:46:27;99228.81;;;9.96;91.99
38716;BME280;24833;49.324;8.694;2023-03-13T00:48:56;99229.66;;;9.96;91.75
38716;BME280;24833;49.324;8.694;2023-03-13T00:51:26;99213.66;;;9.96;91.80
38716;BME280;24833;49.324;8.694;2023-03-13T00:53:54;99217.34;;;9.95;92.10
38716;BME280;24833;49.324;8.694;2023-03-13T00:56:22;99217.34;;;9.95;92.15
38716;BME280;24833;49.324;8.694;2023-03-13T00:58:49;99207.50;;;9.96;91.90
38716;BME280;24833;49.324;8.694;2023-03-13T01:01:26;99207.69;;;9.94;91.43
38716;BME280;24833;49.324;8.694;2023-03-13T01:04:06;99199.69;;;9.94;91.32
38716;BME280;24833;49.324;8.694;2023-03-13T01:06:36;99193.34;;;9.95;91.51
38716;BME280;24833;49.324;8.694;2023-03-13T01:09:05;99193.97;;;9.97;91.50
38716;BME280;24833;49.324;8.694;2023-03-13T01:11:36;99193.75;;;9.99;91.94
38716;BME280;24833;49.324;8.694;2023-03-13T01:14:18;99183.91;;;9.99;91.70
38716;BME280;24833;49.324;8.694;2023-03-13T01:16:45;99179.19;;;10.01;91.81
38716;BME280;24833;49.324;8.694;2023-03-13T01:19:15;99180.81;;;10.02;91.37
38716;BME280;24833;49.324;8.694;2023-03-13T01:21:44;99170.78;;;10.04;91.80
38716;BME280;24833;49.324;8.694;2023-03-13T01:24:11;99168.72;;;10.06;91.69
38716;BME280;24833;49.324;8.694;2023-03-13T01:26:39;99162.94;;;10.09;91.60
38716;BME280;24833;49.324;8.694;2023-03-13T01:29:06;99159.28;;;10.10;91.58
38716;BME280;24833;49.324;8.694;2023-03-13T01:31:34;99156.41;;;10.12;91.72
38716;BME280;24833;49.324;8.694;2023-03-13T01:34:04;99150.03;;;10.13;91.40
38716;BME280;24833;49.324;8.694;2023-03-13T01:36:32;99147.16;;;10.15;91.41
38716;BME280;24833;49.324;8.694;2023-03-13T01:39:01;99138.94;;;10.16;90.88
38716;BME280;24833;49.324;8.694;2023-03-13T01:41:29;99134.22;;;10.18;91.17
38716;BME280;24833;49.324;8.694;2023-03-13T01:43:57;99131.34;;;10.20;91.27
38716;BME280;24833;49.324;8.694;2023-03-13T01:46:29;99137.28;;;10.22;91.13
38716;BME280;24833;49.324;8.694;2023-03-13T01:49:27;99129.94;;;10.24;90.53
38716;BME280;24833;49.324;8.694;2023-03-13T01:52:09;99132.19;;;10.27;90.58
38716;BME280;24833;49.324;8.694;2023-03-13T01:54:58;99125.81;;;10.28;90.77
38716;BME280;24833;49.324;8.694;2023-03-13T01:57:34;99122.09;;;10.29;90.86
38716;BME280;24833;49.324;8.694;2023-03-13T02:00:13;99118.44;;;10.30;90.82
38716;BME280;24833;49.324;8.694;2023-03-13T02:02:47;99119.03;;;10.32;91.02
38716;BME280;24833;49.324;8.694;2023-03-13T02:05:16;99115.34;;;10.33;91.51
38716;BME280;24833;49.324;8.694;2023-03-13T02:08:06;99108.97;;;10.34;89.58
38716;BME280;24833;49.324;8.694;2023-03-13T02:10:41;99108.97;;;10.34;91.23
38716;BME280;24833;49.324;8.694;2023-03-13T02:13:11;99099.91;;;10.35;91.44
38716;BME280;24833;49.324;8.694;2023-03-13T02:15:41;99094.59;;;10.35;91.63
38716;BME280;24833;49.324;8.694;2023-03-13T02:18:08;99090.88;;;10.36;91.74
38716;BME280;24833;49.324;8.694;2023-03-13T02:20:38;99088.03;;;10.38;91.15
38716;BME280;24833;49.324;8.694;2023-03-13T02:23:38;99088.41;;;10.41;90.37
38716;BME280;24833;49.324;8.694;2023-03-13T02:26:06;99081.03;;;10.43;91.13
38716;BME280;24833;49.324;8.694;2023-03-13T02:28:36;99078.13;;;10.45;91.20
38716;BME280;24833;49.324;8.694;2023-03-13T02:31:08;99072.34;;;10.48;91.38
38716;BME280;24833;49.324;8.694;2023-03-13T02:33:39;99063.13;;;10.50;91.32
38716;BME280;24833;49.324;8.694;2023-03-13T02:36:08;99068.03;;;10.53;91.37
38716;BME280;24833;49.324;8.694;2023-03-13T02:39:00;99060.63;;;10.55;89.95
38716;BME280;24833;49.324;8.694;2023-03-13T02:41:30;99053.22;;;10.57;91.13
38716;BME280;24833;49.324;8.694;2023-03-13T02:43:59;99055.47;;;10.60;91.03
38716;BME280;24833;49.324;8.694;2023-03-13T02:46:26;99042.72;;;10.62;90.92
38716;BME280;24833;49.324;8.694;2023-03-13T02:48:55;99041.69;;;10.63;91.19
38716;BME280;24833;49.324;8.694;2023-03-13T02:51:30;99044.97;;;10.66;91.11
38716;BME280;24833;49.324;8.694;2023-03-13T02:54:03;99037.78;;;10.66;90.74
38716;BME280;24833;49.324;8.694;2023-03-13T02:56:33;99037.56;;;10.68;91.39
38716;BME280;24833;49.324;8.694;2023-03-13T02:59:03;99039.00;;;10.70;91.59
38716;BME280;24833;49.324;8.694;2023-03-13T03:01:31;99030.75;;;10.72;91.74
38716;BME280;24833;49.324;8.694;2023-03-13T03:03:58;99028.09;;;10.72;91.32
38716;BME280;24833;49.324;8.694;2023-03-13T03:06:25;99018.81;;;10.74;91.05
38716;BME280;24833;49.324;8.694;2023-03-13T03:08:54;99013.47;;;10.74;90.90
38716;BME280;24833;49.324;8.694;2023-03-13T03:11:21;99011.41;;;10.76;91.17
38716;BME280;24833;49.324;8.694;2023-03-13T03:13:53;99007.50;;;10.79;91.58
38716;BME280;24833;49.324;8.694;2023-03-13T03:16:21;99004.38;;;10.82;91.49
38716;BME280;24833;49.324;8.694;2023-03-13T03:18:48;99002.53;;;10.82;91.26
38716;BME280;24833;49.324;8.694;2023-03-13T03:21:15;98999.66;;;10.84;91.10
38716;BME280;24833;49.324;8.694;2023-03-13T03:23:42;98989.56;;;10.86;91.34
38716;BME280;24833;49.324;8.694;2023-03-13T03:26:09;98991.00;;;10.88;91.68
38716;BME280;24833;49.324;8.694;2023-03-13T03:28:37;98992.44;;;10.91;91.64
38716;BME280;24833;49.324;8.694;2023-03-13T03:31:10;98985.00;;;10.93;89.54
38716;BME280;24833;49.324;8.694;2023-03-13T03:33:40;98991.97;;;10.94;91.41
38716;BME280;24833;49.324;8.694;2023-03-13T03:36:20;98985.81;;;10.94;91.08
38716;BME280;24833;49.324;8.694;2023-03-13T03:38:48;98978.41;;;10.96;91.73
38716;BME280;24833;49.324;8.694;2023-03-13T03:41:18;98985.38;;;10.97;91.41
38716;BME280;24833;49.324;8.694;2023-03-13T03:43:46;98994.81;;;10.99;91.24
38716;BME280;24833;49.324;8.694;2023-03-13T03:46:17;98988.44;;;11.00;91.84
38716;BME280;24833;49.324;8.694;2023-03-13T03:48:44;98992.50;;;11.03;91.58
38716;BME280;24833;49.324;8.694;2023-03-13T03:51:11;98989.66;;;11.04;91.02
38716;BME280;24833;49.324;8.694;2023-03-13T03:53:41;98992.69;;;11.08;91.76
38716;BME280;24833;49.324;8.694;2023-03-13T03:56:09;98982.41;;;11.11;91.65
38716;BME280;24833;49.324;8.694;2023-03-13T03:58:40;98983.00;;;11.13;90.82
38716;BME280;24833;49.324;8.694;2023-03-13T04:01:16;98983.38;;;11.17;90.77
38716;BME280;24833;49.324;8.694;2023-03-13T04:03:43;98984.78;;;11.19;90.94
38716;BME280;24833;49.324;8.694;2023-03-13T04:06:11;98973.06;;;11.21;90.50
38716;BME280;24833;49.324;8.694;2023-03-13T04:08:38;98988.03;;;11.22;91.42
38716;BME280;24833;49.324;8.694;2023-03-13T04:11:06;98995.41;;;11.26;90.32
38716;BME280;24833;49.324;8.694;2023-03-13T04:13:37;98995.19;;;11.28;92.01
38716;BME280;24833;49.324;8.694;2023-03-13T04:16:08;98982.66;;;11.28;91.30
38716;BME280;24833;49.324;8.694;2023-03-13T04:18:36;98996.63;;;11.30;91.88
38716;BME280;24833;49.324;8.694;2023-03-13T04:21:04;98995.78;;;11.30;91.60
38716;BME280;24833;49.324;8.694;2023-03-13T04:23:45;98993.72;;;11.32;91.42
38716;BME280;24833;49.324;8.694;2023-03-13T04:26:13;98981.41;;;11.31;91.54
38716;BME280;24833;49.324;8.694;2023-03-13T04:28:41;98972.94;;;11.34;92.16
38716;BME280;24833;49.324;8.694;2023-03-13T04:31:10;98974.78;;;11.33;92.16
38716;BME280;24833;49.324;8.694;2023-03-13T04:33:55;98962.47;;;11.32;91.62
38716;BME280;24833;49.324;8.694;2023-03-13T04:36:41;98960.84;;;11.31;91.70
38716;BME280;24833;49.324;8.694;2023-03-13T04:39:30;98967.00;;;11.32;91.84
38716;BME280;24833;49.324;8.694;2023-03-13T04:42:17;98972.34;;;11.32;91.75
38716;BME280;24833;49.324;8.694;2023-03-13T04:44:55;98960.03;;;11.31;91.79
38716;BME280;24833;49.324;8.694;2023-03-13T04:47:36;98965.38;;;11.31;90.04
38716;BME280;24833;49.324;8.694;2023-03-13T04:50:18;98962.69;;;11.31;92.03
38716;BME280;24833;49.324;8.694;2023-03-13T04:53:02;98949.53;;;11.29;92.23
38716;BME280;24833;49.324;8.694;2023-03-13T04:55:44;98954.69;;;11.31;92.46
38716;BME280;24833;49.324;8.694;2023-03-13T04:58:30;98947.66;;;11.30;91.98
38716;BME280;24833;49.324;8.694;2023-03-13T05:01:09;98953.00;;;11.30;92.58
38716;BME280;24833;49.324;8.694;2023-03-13T05:03:59;98946.84;;;11.29;92.37
38716;BME280;24833;49.324;8.694;2023-03-13T05:06:41;98955.69;;;11.30;92.39
38716;BME280;24833;49.324;8.694;2023-03-13T05:09:29;98956.72;;;11.29;92.64
38716;BME280;24833;49.324;8.694;2023-03-13T05:12:16;98949.75;;;11.28;92.45
38716;BME280;24833;49.324;8.694;2023-03-13T05:14:57;98948.94;;;11.27;92.13
38716;BME280;24833;49.324;8.694;2023-03-13T05:17:53;98951.63;;;11.27;92.37
38716;BME280;24833;49.324;8.694;2023-03-13T05:20:50;98953.47;;;11.27;92.33
38716;BME280;24833;49.324;8.694;2023-03-13T05:23:34;98946.50;;;11.26;92.21
38716;BME280;24833;49.324;8.694;2023-03-13T05:26:14;98944.06;;;11.24;92.39
38716;BME280;24833;49.324;8.694;2023-03-13T05:28:41;98941.38;;;11.24;92.56
38716;BME280;24833;49.324;8.694;2023-03-13T05:31:31;98939.53;;;11.25;92.31
38716;BME280;24833;49.324;8.694;2023-03-13T05:34:21;98932.53;;;11.24;92.46
38716;BME280;24833;49.324;8.694;2023-03-13T05:37:26;98930.88;;;11.23;92.42
38716;BME280;24833;49.324;8.694;2023-03-13T05:40:05;98929.88;;;11.24;92.58
38716;BME280;24833;49.324;8.694;2023-03-13T05:42:42;98917.31;;;11.24;92.74
38716;BME280;24833;49.324;8.694;2023-03-13T05:45:19;98921.84;;;11.24;92.35
38716;BME280;24833;49.324;8.694;2023-03-13T05:47:58;98932.53;;;11.24;92.42
38716;BME280;24833;49.324;8.694;2023-03-13T05:51:01;98925.53;;;11.23;92.74
38716;BME280;24833;49.324;8.694;2023-03-13T05:53:47;98922.88;;;11.23;92.74
38716;BME280;24833;49.324;8.694;2023-03-13T05:56:34;98931.69;;;11.23;92.90
38716;BME280;24833;49.324;8.694;2023-03-13T05:59:12;98927.19;;;11.24;92.62
38716;BME280;24833;49.324;8.694;2023-03-13T06:01:59;98926.97;;;11.25;92.91
38716;BME280;24833;49.324;8.694;2023-03-13T06:04:31;98923.25;;;11.26;92.70
38716;BME280;24833;49.324;8.694;2023-03-13T06:06:58;98919.53;;;11.27;92.88
38716;BME280;24833;49.324;8.694;2023-03-13T06:09:26;98917.69;;;11.28;92.68
38716;BME280;24833;49.324;8.694;2023-03-13T06:11:55;98913.78;;;11.30;92.83
38716;BME280;24833;49.324;8.694;2023-03-13T06:14:22;98911.91;;;11.31;92.65
38716;BME280;24833;49.324;8.694;2023-03-13T06:17:08;98916.81;;;11.34;93.23
38716;BME280;24833;49.324;8.694;2023-03-13T06:19:35;98922.53;;;11.37;92.69
38716;BME280;24833;49.324;8.694;2023-03-13T06:22:02;98911.84;;;11.37;93.44
38716;BME280;24833;49.324;8.694;2023-03-13T06:24:28;98918.38;;;11.41;93.55
38716;BME280;24833;49.324;8.694;2023-03-13T06:26:55;98918.13;;;11.43;93.90
38716;BME280;24833;49.324;8.694;2023-03-13T06:29:23;98917.69;;;11.46;93.30
38716;BME280;24833;49.324;8.694;2023-03-13T06:31:50;98925.50;;;11.48;93.45
38716;BME280;24833;49.324;8.694;2023-03-13T06:34:17;98912.72;;;11.50;93.73
38716;BME280;24833;49.324;8.694;2023-03-13T06:36:44;98932.63;;;11.54;94.02
38716;BME280;24833;49.324;8.694;2023-03-13T06:39:12;98929.72;;;11.55;93.55
38716;BME280;24833;49.324;8.694;2023-03-13T06:41:39;98933.84;;;11.58;93.05
38716;BME280;24833;49.324;8.694;2023-03-13T06:44:06;98936.28;;;11.59;93.90
38716;BME280;24833;49.324;8.694;2023-03-13T06:46:33;98929.88;;;11.60;93.56
38716;BME280;24833;49.324;8.694;2023-03-13T06:49:00;98951.28;;;11.60;93.58
38716;BME280;24833;49.324;8.694;2023-03-13T06:51:31;98933.13;;;11.62;94.05
38716;BME280;24833;49.324;8.694;2023-03-13T06:53:58;98936.44;;;11.64;93.66
38716;BME280;24833;49.324;8.694;2023-03-13T06:56:25;98925.72;;;11.64;94.16
38716;BME280;24833;49.324;8.694;2023-03-13T06:58:52;98924.22;;;11.68;94.20
38716;BME280;24833;49.324;8.694;2023-03-13T07:01:19;98899.13;;;11.69;94.25
38716;BME280;24833;49.324;8.694;2023-03-13T07:03:47;98911.47;;;11.70;94.34
38716;BME280;24833;49.324;8.694;2023-03-13T07:06:15;98912.28;;;11.71;94.10
38716;BME280;24833;49.324;8.694;2023-03-13T07:08:42;98894.38;;;11.71;94.32
38716;BME280;24833;49.324;8.694;2023-03-13T07:11:12;98886.94;;;11.73;94.45
38716;BME280;24833;49.324;8.694;2023-03-13T07:13:40;98892.88;;;11.76;94.43
38716;BME280;24833;49.324;8.694;2023-03-13T07:16:10;98876.38;;;11.79;93.99
38716;BME280;24833;49.324;8.694;2023-03-13T07:18:38;98875.13;;;11.81;94.07
38716;BME280;24833;49.324;8.694;2023-03-13T07:21:09;98890.13;;;11.82;94.52
38716;BME280;24833;49.324;8.694;2023-03-13T07:23:36;98871.78;;;11.86;94.60
38716;BME280;24833;49.324;8.694;2023-03-13T07:26:11;98862.72;;;11.87;94.29
38716;BME280;24833;49.324;8.694;2023-03-13T07:28:38;98856.91;;;11.90;94.81
38716;BME280;24833;49.324;8.694;2023-03-13T07:31:10;98844.50;;;11.95;94.28
38716;BME280;24833;49.324;8.694;2023-03-13T07:33:38;98853.13;;;11.97;94.56
38716;BME280;24833;49.324;8.694;2023-03-13T07:36:06;98846.03;;;12.03;94.84
38716;BME280;24833;49.324;8.694;2023-03-13T07:38:33;98861.63;;;12.06;94.86
38716;BME280;24833;49.324;8.694;2023-03-13T07:41:00;98864.88;;;12.08;94.80
38716;BME280;24833;49.324;8.694;2023-03-13T07:43:28;98866.06;;;12.12;95.18
38716;BME280;24833;49.324;8.694;2023-03-13T07:46:03;98885.97;;;12.16;94.93
38716;BME280;24833;49.324;8.694;2023-03-13T07:48:36;98887.16;;;12.20;94.98
38716;BME280;24833;49.324;8.694;2023-03-13T07:51:06;98891.38;;;12.28;94.99
38716;BME280;24833;49.324;8.694;2023-03-13T07:53:34;98886.16;;;12.33;95.26
38716;BME280;24833;49.324;8.694;2023-03-13T07:56:11;98884.66;;;12.37;94.25
38716;BME280;24833;49.324;8.694;2023-03-13T07:58:40;98877.78;;;12.41;95.25
38716;BME280;24833;49.324;8.694;2023-03-13T08:03:39;98871.75;;;12.46;94.77
38716;BME280;24833;49.324;8.694;2023-03-13T08:06:09;98872.09;;;12.49;94.89
38716;BME280;24833;49.324;8.694;2023-03-13T08:08:37;98873.50;;;12.52;94.97
38716;BME280;24833;49.324;8.694;2023-03-13T08:11:14;98872.47;;;12.53;94.70
38716;BME280;24833;49.324;8.694;2023-03-13T08:13:42;98882.50;;;12.58;94.95
38716;BME280;24833;49.324;8.694;2023-03-13T08:16:16;98885.75;;;12.60;94.18
38716;BME280;24833;49.324;8.694;2023-03-13T08:18:49;98897.03;;;12.62;94.80
38716;BME280;24833;49.324;8.694;2023-03-13T08:21:29;98880.97;;;12.62;94.07
38716;BME280;24833;49.324;8.694;2023-03-13T08:23:59;98890.88;;;12.61;94.45
38716;BME280;24833;49.324;8.694;2023-03-13T08:26:29;98898.09;;;12.61;94.44
38716;BME280;24833;49.324;8.694;2023-03-13T08:29:14;98890.06;;;12.61;93.95
38716;BME280;24833;49.324;8.694;2023-03-13T08:31:49;98889.81;;;12.62;93.79
38716;BME280;24833;49.324;8.694;2023-03-13T08:34:18;98886.09;;;12.63;94.58
38716;BME280;24833;49.324;8.694;2023-03-13T08:36:46;98884.81;;;12.66;94.13
38716;BME280;24833;49.324;8.694;2023-03-13T08:39:16;98888.09;;;12.68;94.28
38716;BME280;24833;49.324;8.694;2023-03-13T08:41:43;98889.69;;;12.69;94.35
38716;BME280;24833;49.324;8.694;2023-03-13T08:44:13;98893.19;;;12.69;94.27
38716;BME280;24833;49.324;8.694;2023-03-13T08:46:42;98900.41;;;12.69;92.49
38716;BME280;24833;49.324;8.694;2023-03-13T08:49:10;98897.50;;;12.70;94.05
38716;BME280;24833;49.324;8.694;2023-03-13T08:51:38;98891.13;;;12.71;94.16
38716;BME280;24833;49.324;8.694;2023-03-13T08:54:06;98893.56;;;12.73;94.23
38716;BME280;24833;49.324;8.694;2023-03-13T08:56:33;98891.69;;;12.73;94.66
38716;BME280;24833;49.324;8.694;2023-03-13T08:59:03;98886.91;;;12.75;94.58
38716;BME280;24833;49.324;8.694;2023-03-13T09:01:32;98892.03;;;12.77;94.34
38716;BME280;24833;49.324;8.694;2023-03-13T09:04:00;98891.81;;;12.78;94.04
38716;BME280;24833;49.324;8.694;2023-03-13T09:06:35;98887.84;;;12.81;94.61
38716;BME280;24833;49.324;8.694;2023-03-13T09:09:04;98882.25;;;12.82;94.52
38716;BME280;24833;49.324;8.694;2023-03-13T09:11:32;98894.59;;;12.83;94.46
38716;BME280;24833;49.324;8.694;2023-03-13T09:13:59;98903.25;;;12.86;93.57
38716;BME280;24833;49.324;8.694;2023-03-13T09:16:29;98907.56;;;12.87;94.48
38716;BME280;24833;49.324;8.694;2023-03-13T09:18:57;98917.22;;;12.88;92.62
38716;BME280;24833;49.324;8.694;2023-03-13T09:21:31;98881.34;;;12.89;93.60
38716;BME280;24833;49.324;8.694;2023-03-13T09:23:59;98886.25;;;12.92;93.84
38716;BME280;24833;49.324;8.694;2023-03-13T09:26:27;98878.31;;;12.97;94.10
38716;BME280;24833;49.324;8.694;2023-03-13T09:28:54;98886.00;;;13.05;94.91
38716;BME280;24833;49.324;8.694;2023-03-13T09:31:31;98881.34;;;13.12;94.67
38716;BME280;24833;49.324;8.694;2023-03-13T09:33:59;98874.00;;;13.19;94.41
38716;BME280;24833;49.324;8.694;2023-03-13T09:36:26;98884.63;;;13.26;94.04
38716;BME280;24833;49.324;8.694;2023-03-13T09:38:57;98876.91;;;13.29;94.01
38716;BME280;24833;49.324;8.694;2023-03-13T09:42:11;98875.41;;;13.33;92.86
38716;BME280;24833;49.324;8.694;2023-03-13T09:44:47;98877.84;;;13.35;93.31
38716;BME280;24833;49.324;8.694;2023-03-13T09:50:21;98868.28;;;13.39;93.81
38716;BME280;24833;49.324;8.694;2023-03-13T09:52:54;98871.28;;;13.43;94.48
38716;BME280;24833;49.324;8.694;2023-03-13T09:55:28;98864.31;;;13.42;93.20
38716;BME280;24833;49.324;8.694;2023-03-13T09:58:20;98872.91;;;13.44;93.72
38716;BME280;24833;49.324;8.694;2023-03-13T10:00:57;98856.03;;;13.43;93.54
38716;BME280;24833;49.324;8.694;2023-03-13T10:03:40;98862.19;;;13.44;93.45
38716;BME280;24833;49.324;8.694;2023-03-13T10:06:20;98848.56;;;13.45;93.93
38716;BME280;24833;49.324;8.694;2023-03-13T10:08:48;98838.66;;;13.46;94.48
38716;BME280;24833;49.324;8.694;2023-03-13T10:11:37;98835.16;;;13.45;93.67
38716;BME280;24833;49.324;8.694;2023-03-13T10:14:19;98837.03;;;13.45;93.72
38716;BME280;24833;49.324;8.694;2023-03-13T10:17:31;98834.09;;;13.46;92.82
38716;BME280;24833;49.324;8.694;2023-03-13T10:20:30;98832.47;;;13.45;92.93
38716;BME280;24833;49.324;8.694;2023-03-13T10:23:06;98822.88;;;13.49;93.81
38716;BME280;24833;49.324;8.694;2023-03-13T10:25:39;98828.84;;;13.51;94.59
38716;BME280;24833;49.324;8.694;2023-03-13T10:28:12;98832.09;;;13.53;94.30
38716;BME280;24833;49.324;8.694;2023-03-13T10:30:51;98828.13;;;13.56;94.00
38716;BME280;24833;49.324;8.694;2023-03-13T10:33:24;98819.59;;;13.59;93.83
38716;BME280;24833;49.324;8.694;2023-03-13T10:36:12;98803.59;;;13.64;93.74
38716;BME280;24833;49.324;8.694;2023-03-13T10:38:51;98812.34;;;13.71;93.55
38716;BME280;24833;49.324;8.694;2023-03-13T10:41:28;98810.63;;;13.82;94.02
38716;BME280;24833;49.324;8.694;2023-03-13T10:44:05;98802.19;;;13.90;94.36
38716;BME280;24833;49.324;8.694;2023-03-13T10:46:35;98789.44;;;13.97;94.46
38716;BME280;24833;49.324;8.694;2023-03-13T10:49:31;98797.69;;;14.07;92.73
38716;BME280;24833;49.324;8.694;2023-03-13T10:52:03;98789.47;;;14.14;94.33
38716;BME280;24833;49.324;8.694;2023-03-13T10:54:34;98788.25;;;14.22;93.99
38716;BME280;24833;49.324;8.694;2023-03-13T10:59:48;98772.16;;;14.38;93.07
38716;BME280;24833;49.324;8.694;2023-03-13T11:02:34;98760.41;;;14.44;91.33
38716;BME280;24833;49.324;8.694;2023-03-13T11:07:52;98758.63;;;14.67;92.84
38716;BME280;24833;49.324;8.694;2023-03-13T11:10:21;98738.91;;;14.78;93.78
38716;BME280;24833;49.324;8.694;2023-03-13T11:12:52;98720.75;;;14.90;93.89
38716;BME280;24833;49.324;8.694;2023-03-13T11:15:44;98712.91;;;15.06;93.29
38716;BME280;24833;49.324;8.694;2023-03-13T11:18:18;98720.06;;;15.22;94.02
38716;BME280;24833;49.324;8.694;2023-03-13T11:20:48;98721.81;;;15.33;93.79
38716;BME280;24833;49.324;8.694;2023-03-13T11:23:39;98712.81;;;15.49;94.36
38716;BME280;24833;49.324;8.694;2023-03-13T11:26:23;98702.44;;;15.58;92.76
38716;BME280;24833;49.324;8.694;2023-03-13T11:29:21;98695.22;;;15.64;91.62
38716;BME280;24833;49.324;8.694;2023-03-13T11:32:04;98687.25;;;15.74;93.56
38716;BME280;24833;49.324;8.694;2023-03-13T11:34:43;98690.81;;;15.79;93.71
38716;BME280;24833;49.324;8.694;2023-03-13T11:37:15;98672.81;;;15.85;93.45
38716;BME280;24833;49.324;8.694;2023-03-13T11:45:43;98668.63;;;16.04;92.37
38716;BME280;24833;49.324;8.694;2023-03-13T11:48:44;98652.47;;;16.04;92.31
38716;BME280;24833;49.324;8.694;2023-03-13T11:51:58;98644.38;;;16.04;91.52
38716;BME280;24833;49.324;8.694;2023-03-13T11:57:37;98629.88;;;16.11;92.04
38716;BME280;24833;49.324;8.694;2023-03-13T12:00:23;98625.34;;;16.16;92.85
38716;BME280;24833;49.324;8.694;2023-03-13T12:05:25;98600.38;;;16.31;92.70
38716;BME280;24833;49.324;8.694;2023-03-13T12:08:06;98592.38;;;16.46;93.50
38716;BME280;24833;49.324;8.694;2023-03-13T12:10:43;98588.94;;;16.61;91.91
38716;BME280;24833;49.324;8.694;2023-03-13T12:13:33;98579.34;;;16.85;92.78
38716;BME280;24833;49.324;8.694;2023-03-13T12:16:10;98579.13;;;17.12;95.29
38716;BME280;24833;49.324;8.694;2023-03-13T12:18:41;98583.97;;;17.36;93.96
38716;BME280;24833;49.324;8.694;2023-03-13T12:21:31;98555.38;;;17.65;96.00
38716;BME280;24833;49.324;8.694;2023-03-13T12:24:22;98557.81;;;17.87;93.59
38716;BME280;24833;49.324;8.694;2023-03-13T12:26:58;98554.75;;;18.09;93.24
38716;BME280;24833;49.324;8.694;2023-03-13T12:29:57;98548.25;;;18.26;94.41
38716;BME280;24833;49.324;8.694;2023-03-13T12:32:38;98529.28;;;18.31;91.44
38716;BME280;24833;49.324;8.694;2023-03-13T12:38:19;98525.69;;;18.45;92.02
38716;BME280;24833;49.324;8.694;2023-03-13T12:43:32;98495.66;;;18.52;92.91
38716;BME280;24833;49.324;8.694;2023-03-13T12:52:24;98476.78;;;18.47;87.53
38716;BME280;24833;49.324;8.694;2023-03-13T12:58:28;98469.28;;;18.34;90.65
38716;BME280;24833;49.324;8.694;2023-03-13T13:01:02;98460.09;;;18.30;91.75
38716;BME280;24833;49.324;8.694;2023-03-13T13:03:51;98458.50;;;18.23;90.70
38716;BME280;24833;49.324;8.694;2023-03-13T13:06:19;98453.94;;;18.19;90.97
38716;BME280;24833;49.324;8.694;2023-03-13T13:16:47;98426.94;;;18.19;92.49
38716;BME280;24833;49.324;8.694;2023-03-13T13:30:31;98397.59;;;18.41;91.19
38716;BME280;24833;49.324;8.694;2023-03-13T13:35:46;98386.91;;;18.60;90.18
38716;BME280;24833;49.324;8.694;2023-03-13T13:38:39;98369.75;;;18.80;91.32
38716;BME280;24833;49.324;8.694;2023-03-13T13:43:42;98362.19;;;19.06;87.06
38716;BME280;24833;49.324;8.694;2023-03-13T13:46:32;98347.88;;;19.29;91.79
38716;BME280;24833;49.324;8.694;2023-03-13T13:51:38;98336.63;;;19.65;89.13
38716;BME280;24833;49.324;8.694;2023-03-13T13:56:42;98313.50;;;19.92;85.88
38716;BME280;24833;49.324;8.694;2023-03-13T14:05:06;98303.53;;;20.25;84.34
38716;BME280;24833;49.324;8.694;2023-03-13T14:07:49;98303.09;;;20.36;88.14
38716;BME280;24833;49.324;8.694;2023-03-13T14:10:36;98284.84;;;20.42;86.95
38716;BME280;24833;49.324;8.694;2023-03-13T14:13:21;98277.44;;;20.48;87.78
38716;BME280;24833;49.324;8.694;2023-03-13T14:15:50;98301.59;;;20.44;86.63
38716;BME280;24833;49.324;8.694;2023-03-13T14:18:29;98271.72;;;20.30;81.00
38716;BME280;24833;49.324;8.694;2023-03-13T14:21:02;98263.91;;;20.29;84.25
38716;BME280;24833;49.324;8.694;2023-03-13T14:23:40;98257.56;;;20.20;83.17
38716;BME280;24833;49.324;8.694;2023-03-13T14:26:20;98243.53;;;20.12;83.72
38716;BME280;24833;49.324;8.694;2023-03-13T14:28:54;98239.53;;;20.10;84.33
38716;BME280;24833;49.324;8.694;2023-03-13T14:33:59;98219.25;;;20.07;83.84
38716;BME280;24833;49.324;8.694;2023-03-13T14:36:28;98217.03;;;20.09;83.32
38716;BME280;24833;49.324;8.694;2023-03-13T14:38:58;98217.47;;;20.17;84.89
38716;BME280;24833;49.324;8.694;2023-03-13T14:41:35;98206.22;;;20.23;86.02
38716;BME280;24833;49.324;8.694;2023-03-13T14:44:20;98189.38;;;20.26;85.18
38716;BME280;24833;49.324;8.694;2023-03-13T14:46:54;98182.34;;;20.25;83.91
38716;BME280;24833;49.324;8.694;2023-03-13T14:49:26;98178.94;;;20.20;83.15
38716;BME280;24833;49.324;8.694;2023-03-13T14:54:34;98168.38;;;20.18;83.82
38716;BME280;24833;49.324;8.694;2023-03-13T14:57:14;98146.59;;;20.23;84.16